sensor_id;sensor_type;location;lat;lon;timestamp;P1;durP1;ratioP1;P2;durP2;ratioP2
12519;SDS011;6325;49.540;8.364;2023-04-07T00:01:22;7.35;;;6.75;;
12519;SDS011;6325;49.540;8.364;2023-04-07T00:03:58;7.78;;;7.07;;
12519;SDS011;6325;49.540;8.364;2023-04-07T00:06:25;7.68;;;7.07;;
12519;SDS011;6325;49.540;8.364;2023-04-07T00:08:52;7.57;;;6.97;;
12519;SDS011;6325;49.540;8.364;2023-04-07T00:11:20;7.40;;;6.78;;
12519;SDS011;6325;49.540;8.364;2023-04-07T00:13:46;7.30;;;6.67;;
12519;SDS011;6325;49.540;8.364;2023-04-07T00:16:13;7.78;;;7.07;;
12519;SDS011;6325;49.540;8.364;2023-04-07T00:18:43;7.55;;;6.85;;
12519;SDS011;6325;49.540;8.364;2023-04-07T00:21:11;7.10;;;6.50;;
12519;SDS011;6325;49.540;8.364;2023-04-07T00:23:38;6.80;;;6.20;;
12519;SDS011;6325;49.540;8.364;2023-04-07T00:26:06;6.93;;;6.32;;
12519;SDS011;6325;49.540;8.364;2023-04-07T00:28:34;7.07;;;6.47;;
12519;SDS011;6325;49.540;8.364;2023-04-07T00:31:00;6.70;;;6.10;;
12519;SDS011;6325;49.540;8.364;2023-04-07T00:33:28;7.03;;;6.50;;
12519;SDS011;6325;49.540;8.364;2023-04-07T00:35:54;6.80;;;6.20;;
12519;SDS011;6325;49.540;8.364;2023-04-07T00:38:24;6.95;;;6.40;;
12519;SDS011;6325;49.540;8.364;2023-04-07T00:40:56;6.85;;;6.28;;
12519;SDS011;6325;49.540;8.364;2023-04-07T00:43:29;6.22;;;5.72;;
12519;SDS011;6325;49.540;8.364;2023-04-07T00:45:57;6.50;;;5.90;;
12519;SDS011;6325;49.540;8.364;2023-04-07T00:48:24;6.80;;;6.20;;
12519;SDS011;6325;49.540;8.364;2023-04-07T00:50:55;6.80;;;6.20;;
12519;SDS011;6325;49.540;8.364;2023-04-07T00:53:26;6.43;;;5.93;;
12519;SDS011;6325;49.540;8.364;2023-04-07T00:55:54;6.55;;;5.95;;
12519;SDS011;6325;49.540;8.364;2023-04-07T00:58:22;6.53;;;6.03;;
12519;SDS011;6325;49.540;8.364;2023-04-07T01:00:50;6.60;;;6.10;;
12519;SDS011;6325;49.540;8.364;2023-04-07T01:03:28;6.40;;;5.90;;
12519;SDS011;6325;49.540;8.364;2023-04-07T01:05:59;6.30;;;5.80;;
12519;SDS011;6325;49.540;8.364;2023-04-07T01:08:30;6.45;;;5.85;;
12519;SDS011;6325;49.540;8.364;2023-04-07T01:11:04;6.50;;;6.00;;
12519;SDS011;6325;49.540;8.364;2023-04-07T01:13:40;6.72;;;6.15;;
12519;SDS011;6325;49.540;8.364;2023-04-07T01:16:12;6.35;;;5.85;;
12519;SDS011;6325;49.540;8.364;2023-04-07T01:18:42;6.55;;;6.05;;
12519;SDS011;6325;49.540;8.364;2023-04-07T01:21:13;6.68;;;6.18;;
12519;SDS011;6325;49.540;8.364;2023-04-07T01:23:51;6.63;;;6.13;;
12519;SDS011;6325;49.540;8.364;2023-04-07T01:26:27;6.63;;;6.03;;
12519;SDS011;6325;49.540;8.364;2023-04-07T01:28:56;6.82;;;6.32;;
12519;SDS011;6325;49.540;8.364;2023-04-07T01:31:38;6.83;;;6.23;;
12519;SDS011;6325;49.540;8.364;2023-04-07T01:34:07;6.72;;;6.15;;
12519;SDS011;6325;49.540;8.364;2023-04-07T01:36:35;6.95;;;6.35;;
12519;SDS011;6325;49.540;8.364;2023-04-07T01:39:03;6.40;;;5.90;;
12519;SDS011;6325;49.540;8.364;2023-04-07T01:41:31;6.95;;;6.35;;
12519;SDS011;6325;49.540;8.364;2023-04-07T01:43:59;7.28;;;6.57;;
12519;SDS011;6325;49.540;8.364;2023-04-07T01:46:27;7.43;;;6.82;;
12519;SDS011;6325;49.540;8.364;2023-04-07T01:48:56;7.03;;;6.47;;
12519;SDS011;6325;49.540;8.364;2023-04-07T01:51:24;7.03;;;6.43;;
12519;SDS011;6325;49.540;8.364;2023-04-07T01:53:52;6.32;;;5.82;;
12519;SDS011;6325;49.540;8.364;2023-04-07T01:56:20;7.20;;;6.60;;
12519;SDS011;6325;49.540;8.364;2023-04-07T01:58:47;6.83;;;6.33;;
12519;SDS011;6325;49.540;8.364;2023-04-07T02:01:14;6.32;;;5.82;;
12519;SDS011;6325;49.540;8.364;2023-04-07T02:03:43;7.05;;;6.45;;
12519;SDS011;6325;49.540;8.364;2023-04-07T02:06:16;6.38;;;5.88;;
12519;SDS011;6325;49.540;8.364;2023-04-07T02:08:46;7.10;;;6.50;;
12519;SDS011;6325;49.540;8.364;2023-04-07T02:11:17;6.90;;;6.40;;
12519;SDS011;6325;49.540;8.364;2023-04-07T02:13:47;7.10;;;6.60;;
12519;SDS011;6325;49.540;8.364;2023-04-07T02:16:16;7.53;;;6.75;;
12519;SDS011;6325;49.540;8.364;2023-04-07T02:18:45;7.43;;;6.80;;
12519;SDS011;6325;49.540;8.364;2023-04-07T02:21:13;7.10;;;6.50;;
12519;SDS011;6325;49.540;8.364;2023-04-07T02:23:42;7.25;;;6.55;;
12519;SDS011;6325;49.540;8.364;2023-04-07T02:26:09;7.30;;;6.70;;
12519;SDS011;6325;49.540;8.364;2023-04-07T02:28:37;6.93;;;6.33;;
12519;SDS011;6325;49.540;8.364;2023-04-07T02:31:03;7.30;;;6.60;;
12519;SDS011;6325;49.540;8.364;2023-04-07T02:33:30;6.90;;;6.30;;
12519;SDS011;6325;49.540;8.364;2023-04-07T02:35:57;7.20;;;6.60;;
12519;SDS011;6325;49.540;8.364;2023-04-07T02:38:26;7.78;;;7.07;;
12519;SDS011;6325;49.540;8.364;2023-04-07T02:40:53;6.97;;;6.47;;
12519;SDS011;6325;49.540;8.364;2023-04-07T02:43:20;6.75;;;6.25;;
12519;SDS011;6325;49.540;8.364;2023-04-07T02:45:49;6.55;;;6.03;;
12519;SDS011;6325;49.540;8.364;2023-04-07T02:48:16;6.80;;;6.20;;
12519;SDS011;6325;49.540;8.364;2023-04-07T02:50:43;7.25;;;6.65;;
12519;SDS011;6325;49.540;8.364;2023-04-07T02:53:10;7.10;;;6.50;;
12519;SDS011;6325;49.540;8.364;2023-04-07T02:55:41;7.35;;;6.65;;
12519;SDS011;6325;49.540;8.364;2023-04-07T02:58:08;7.30;;;6.70;;
12519;SDS011;6325;49.540;8.364;2023-04-07T03:00:35;7.80;;;7.10;;
12519;SDS011;6325;49.540;8.364;2023-04-07T03:03:02;7.28;;;6.68;;
12519;SDS011;6325;49.540;8.364;2023-04-07T03:05:32;7.15;;;6.55;;
12519;SDS011;6325;49.540;8.364;2023-04-07T03:08:00;6.95;;;6.38;;
12519;SDS011;6325;49.540;8.364;2023-04-07T03:10:27;6.78;;;6.28;;
12519;SDS011;6325;49.540;8.364;2023-04-07T03:12:55;7.25;;;6.65;;
12519;SDS011;6325;49.540;8.364;2023-04-07T03:15:22;7.70;;;7.00;;
12519;SDS011;6325;49.540;8.364;2023-04-07T03:17:49;7.00;;;6.47;;
12519;SDS011;6325;49.540;8.364;2023-04-07T03:20:16;7.10;;;6.50;;
12519;SDS011;6325;49.540;8.364;2023-04-07T03:22:43;6.35;;;5.85;;
12519;SDS011;6325;49.540;8.364;2023-04-07T03:25:11;7.00;;;6.40;;
12519;SDS011;6325;49.540;8.364;2023-04-07T03:27:38;6.60;;;6.10;;
12519;SDS011;6325;49.540;8.364;2023-04-07T03:30:07;7.20;;;6.57;;
12519;SDS011;6325;49.540;8.364;2023-04-07T03:32:35;6.85;;;6.30;;
12519;SDS011;6325;49.540;8.364;2023-04-07T03:35:02;6.88;;;6.38;;
12519;SDS011;6325;49.540;8.364;2023-04-07T03:37:29;6.90;;;6.40;;
12519;SDS011;6325;49.540;8.364;2023-04-07T03:39:56;7.43;;;6.82;;
12519;SDS011;6325;49.540;8.364;2023-04-07T03:42:24;6.88;;;6.38;;
12519;SDS011;6325;49.540;8.364;2023-04-07T03:44:52;7.88;;;7.15;;
12519;SDS011;6325;49.540;8.364;2023-04-07T03:47:20;7.18;;;6.60;;
12519;SDS011;6325;49.540;8.364;2023-04-07T03:49:47;7.72;;;7.07;;
12519;SDS011;6325;49.540;8.364;2023-04-07T03:52:14;7.65;;;6.95;;
12519;SDS011;6325;49.540;8.364;2023-04-07T03:54:41;7.82;;;7.20;;
12519;SDS011;6325;49.540;8.364;2023-04-07T03:57:08;8.57;;;7.80;;
12519;SDS011;6325;49.540;8.364;2023-04-07T03:59:35;7.50;;;6.90;;
12519;SDS011;6325;49.540;8.364;2023-04-07T04:02:03;7.55;;;6.95;;
12519;SDS011;6325;49.540;8.364;2023-04-07T04:04:31;7.85;;;7.15;;
12519;SDS011;6325;49.540;8.364;2023-04-07T04:06:58;7.93;;;7.30;;
12519;SDS011;6325;49.540;8.364;2023-04-07T04:09:26;7.50;;;6.90;;
12519;SDS011;6325;49.540;8.364;2023-04-07T04:11:53;7.87;;;7.27;;
12519;SDS011;6325;49.540;8.364;2023-04-07T04:14:27;7.97;;;7.30;;
12519;SDS011;6325;49.540;8.364;2023-04-07T04:16:54;7.85;;;7.25;;
12519;SDS011;6325;49.540;8.364;2023-04-07T04:19:21;7.90;;;7.20;;
12519;SDS011;6325;49.540;8.364;2023-04-07T04:21:49;7.72;;;7.10;;
12519;SDS011;6325;49.540;8.364;2023-04-07T04:24:16;7.90;;;7.20;;
12519;SDS011;6325;49.540;8.364;2023-04-07T04:26:43;8.00;;;7.38;;
12519;SDS011;6325;49.540;8.364;2023-04-07T04:29:10;8.07;;;7.38;;
12519;SDS011;6325;49.540;8.364;2023-04-07T04:31:37;7.65;;;6.95;;
12519;SDS011;6325;49.540;8.364;2023-04-07T04:34:05;7.90;;;7.27;;
12519;SDS011;6325;49.540;8.364;2023-04-07T04:36:32;7.57;;;6.97;;
12519;SDS011;6325;49.540;8.364;2023-04-07T04:39:00;8.02;;;7.43;;
12519;SDS011;6325;49.540;8.364;2023-04-07T04:41:27;7.53;;;6.93;;
12519;SDS011;6325;49.540;8.364;2023-04-07T04:43:54;7.55;;;6.95;;
12519;SDS011;6325;49.540;8.364;2023-04-07T04:46:21;7.80;;;7.20;;
12519;SDS011;6325;49.540;8.364;2023-04-07T04:48:47;7.90;;;7.20;;
12519;SDS011;6325;49.540;8.364;2023-04-07T04:51:15;7.90;;;7.28;;
12519;SDS011;6325;49.540;8.364;2023-04-07T04:53:42;7.82;;;7.13;;
12519;SDS011;6325;49.540;8.364;2023-04-07T04:56:10;8.00;;;7.40;;
12519;SDS011;6325;49.540;8.364;2023-04-07T04:58:38;7.85;;;7.20;;
12519;SDS011;6325;49.540;8.364;2023-04-07T05:01:06;7.60;;;7.00;;
12519;SDS011;6325;49.540;8.364;2023-04-07T05:03:33;7.70;;;7.07;;
12519;SDS011;6325;49.540;8.364;2023-04-07T05:06:00;7.90;;;7.20;;
12519;SDS011;6325;49.540;8.364;2023-04-07T05:08:27;7.53;;;6.93;;
12519;SDS011;6325;49.540;8.364;2023-04-07T05:10:54;8.00;;;7.30;;
12519;SDS011;6325;49.540;8.364;2023-04-07T05:13:23;8.27;;;7.57;;
12519;SDS011;6325;49.540;8.364;2023-04-07T05:15:51;7.95;;;7.35;;
12519;SDS011;6325;49.540;8.364;2023-04-07T05:18:18;7.40;;;6.80;;
12519;SDS011;6325;49.540;8.364;2023-04-07T05:20:47;7.70;;;7.10;;
12519;SDS011;6325;49.540;8.364;2023-04-07T05:23:14;7.82;;;7.13;;
12519;SDS011;6325;49.540;8.364;2023-04-07T05:25:41;7.75;;;7.10;;
12519;SDS011;6325;49.540;8.364;2023-04-07T05:28:08;7.10;;;6.60;;
12519;SDS011;6325;49.540;8.364;2023-04-07T05:30:39;8.20;;;7.50;;
12519;SDS011;6325;49.540;8.364;2023-04-07T05:33:06;7.18;;;6.68;;
12519;SDS011;6325;49.540;8.364;2023-04-07T05:35:33;7.20;;;6.60;;
12519;SDS011;6325;49.540;8.364;2023-04-07T05:38:00;7.25;;;6.65;;
12519;SDS011;6325;49.540;8.364;2023-04-07T05:40:27;7.07;;;6.57;;
12519;SDS011;6325;49.540;8.364;2023-04-07T05:42:54;7.38;;;6.78;;
12519;SDS011;6325;49.540;8.364;2023-04-07T05:45:21;6.63;;;6.15;;
12519;SDS011;6325;49.540;8.364;2023-04-07T05:47:49;6.97;;;6.38;;
12519;SDS011;6325;49.540;8.364;2023-04-07T05:50:16;6.95;;;6.38;;
12519;SDS011;6325;49.540;8.364;2023-04-07T05:52:43;7.13;;;6.53;;
12519;SDS011;6325;49.540;8.364;2023-04-07T05:55:10;7.35;;;6.75;;
12519;SDS011;6325;49.540;8.364;2023-04-07T05:57:37;7.38;;;6.78;;
12519;SDS011;6325;49.540;8.364;2023-04-07T06:00:04;7.35;;;6.75;;
12519;SDS011;6325;49.540;8.364;2023-04-07T06:02:32;7.90;;;7.20;;
12519;SDS011;6325;49.540;8.364;2023-04-07T06:05:02;7.40;;;6.80;;
12519;SDS011;6325;49.540;8.364;2023-04-07T06:07:29;7.60;;;7.00;;
12519;SDS011;6325;49.540;8.364;2023-04-07T06:09:56;7.20;;;6.60;;
12519;SDS011;6325;49.540;8.364;2023-04-07T06:12:23;7.38;;;6.75;;
12519;SDS011;6325;49.540;8.364;2023-04-07T06:14:51;7.30;;;6.70;;
12519;SDS011;6325;49.540;8.364;2023-04-07T06:17:19;7.10;;;6.50;;
12519;SDS011;6325;49.540;8.364;2023-04-07T06:19:46;7.70;;;7.00;;
12519;SDS011;6325;49.540;8.364;2023-04-07T06:22:14;6.95;;;6.35;;
12519;SDS011;6325;49.540;8.364;2023-04-07T06:24:41;7.85;;;7.15;;
12519;SDS011;6325;49.540;8.364;2023-04-07T06:27:08;7.10;;;6.50;;
12519;SDS011;6325;49.540;8.364;2023-04-07T06:29:35;7.15;;;6.50;;
12519;SDS011;6325;49.540;8.364;2023-04-07T06:32:02;7.07;;;6.53;;
12519;SDS011;6325;49.540;8.364;2023-04-07T06:34:29;7.10;;;6.50;;
12519;SDS011;6325;49.540;8.364;2023-04-07T06:36:56;7.68;;;7.03;;
12519;SDS011;6325;49.540;8.364;2023-04-07T06:39:25;7.10;;;6.47;;
12519;SDS011;6325;49.540;8.364;2023-04-07T06:41:52;7.30;;;6.70;;
12519;SDS011;6325;49.540;8.364;2023-04-07T06:44:20;7.20;;;6.60;;
12519;SDS011;6325;49.540;8.364;2023-04-07T06:46:47;7.35;;;6.75;;
12519;SDS011;6325;49.540;8.364;2023-04-07T06:49:17;7.20;;;6.60;;
12519;SDS011;6325;49.540;8.364;2023-04-07T06:51:44;7.60;;;6.90;;
12519;SDS011;6325;49.540;8.364;2023-04-07T06:54:11;7.05;;;6.45;;
12519;SDS011;6325;49.540;8.364;2023-04-07T06:56:40;7.13;;;6.53;;
12519;SDS011;6325;49.540;8.364;2023-04-07T06:59:07;8.13;;;7.38;;
12519;SDS011;6325;49.540;8.364;2023-04-07T07:01:34;7.70;;;7.00;;
12519;SDS011;6325;49.540;8.364;2023-04-07T07:04:02;7.57;;;6.97;;
12519;SDS011;6325;49.540;8.364;2023-04-07T07:06:29;7.53;;;6.93;;
12519;SDS011;6325;49.540;8.364;2023-04-07T07:08:56;6.80;;;6.25;;
12519;SDS011;6325;49.540;8.364;2023-04-07T07:11:23;6.82;;;6.32;;
12519;SDS011;6325;49.540;8.364;2023-04-07T07:13:52;6.68;;;6.18;;
12519;SDS011;6325;49.540;8.364;2023-04-07T07:16:19;6.97;;;6.47;;
12519;SDS011;6325;49.540;8.364;2023-04-07T07:18:48;7.03;;;6.53;;
12519;SDS011;6325;49.540;8.364;2023-04-07T07:21:15;8.18;;;7.40;;
12519;SDS011;6325;49.540;8.364;2023-04-07T07:23:42;6.97;;;6.40;;
12519;SDS011;6325;49.540;8.364;2023-04-07T07:26:10;7.85;;;7.15;;
12519;SDS011;6325;49.540;8.364;2023-04-07T07:28:36;6.90;;;6.40;;
12519;SDS011;6325;49.540;8.364;2023-04-07T07:31:08;7.38;;;6.78;;
12519;SDS011;6325;49.540;8.364;2023-04-07T07:33:37;8.00;;;7.30;;
12519;SDS011;6325;49.540;8.364;2023-04-07T07:36:05;8.85;;;7.95;;
12519;SDS011;6325;49.540;8.364;2023-04-07T07:38:32;7.40;;;6.80;;
12519;SDS011;6325;49.540;8.364;2023-04-07T07:41:00;7.38;;;6.78;;
12519;SDS011;6325;49.540;8.364;2023-04-07T07:43:27;6.73;;;6.13;;
12519;SDS011;6325;49.540;8.364;2023-04-07T07:45:54;7.38;;;6.78;;
12519;SDS011;6325;49.540;8.364;2023-04-07T07:48:22;7.47;;;6.78;;
12519;SDS011;6325;49.540;8.364;2023-04-07T07:50:49;7.73;;;7.03;;
12519;SDS011;6325;49.540;8.364;2023-04-07T07:53:17;7.88;;;7.18;;
12519;SDS011;6325;49.540;8.364;2023-04-07T07:55:44;6.53;;;6.03;;
12519;SDS011;6325;49.540;8.364;2023-04-07T07:58:11;6.63;;;6.13;;
12519;SDS011;6325;49.540;8.364;2023-04-07T08:00:38;6.25;;;5.68;;
12519;SDS011;6325;49.540;8.364;2023-04-07T08:03:05;5.80;;;5.30;;
12519;SDS011;6325;49.540;8.364;2023-04-07T08:05:34;6.38;;;5.70;;
12519;SDS011;6325;49.540;8.364;2023-04-07T08:08:00;6.23;;;5.73;;
12519;SDS011;6325;49.540;8.364;2023-04-07T08:10:28;6.30;;;5.80;;
12519;SDS011;6325;49.540;8.364;2023-04-07T08:12:55;6.30;;;5.70;;
12519;SDS011;6325;49.540;8.364;2023-04-07T08:15:22;6.50;;;6.00;;
12519;SDS011;6325;49.540;8.364;2023-04-07T08:17:49;5.60;;;5.10;;
12519;SDS011;6325;49.540;8.364;2023-04-07T08:20:16;6.95;;;6.25;;
12519;SDS011;6325;49.540;8.364;2023-04-07T08:22:44;6.70;;;6.00;;
12519;SDS011;6325;49.540;8.364;2023-04-07T08:25:11;6.70;;;6.00;;
12519;SDS011;6325;49.540;8.364;2023-04-07T08:27:38;6.10;;;5.50;;
12519;SDS011;6325;49.540;8.364;2023-04-07T08:30:06;6.68;;;5.97;;
12519;SDS011;6325;49.540;8.364;2023-04-07T08:32:34;7.90;;;6.38;;
12519;SDS011;6325;49.540;8.364;2023-04-07T08:35:01;10.23;;;7.72;;
12519;SDS011;6325;49.540;8.364;2023-04-07T08:37:29;12.75;;;8.80;;
12519;SDS011;6325;49.540;8.364;2023-04-07T08:39:57;5.90;;;5.30;;
12519;SDS011;6325;49.540;8.364;2023-04-07T08:42:26;5.00;;;4.60;;
12519;SDS011;6325;49.540;8.364;2023-04-07T08:44:55;4.77;;;4.37;;
12519;SDS011;6325;49.540;8.364;2023-04-07T08:47:24;4.43;;;4.10;;
12519;SDS011;6325;49.540;8.364;2023-04-07T08:49:52;4.03;;;3.72;;
12519;SDS011;6325;49.540;8.364;2023-04-07T08:52:22;5.05;;;4.65;;
12519;SDS011;6325;49.540;8.364;2023-04-07T08:54:58;4.78;;;4.38;;
12519;SDS011;6325;49.540;8.364;2023-04-07T08:57:26;4.47;;;4.17;;
12519;SDS011;6325;49.540;8.364;2023-04-07T08:59:55;4.77;;;4.40;;
12519;SDS011;6325;49.540;8.364;2023-04-07T09:02:26;4.90;;;4.50;;
12519;SDS011;6325;49.540;8.364;2023-04-07T09:04:55;4.07;;;3.67;;
12519;SDS011;6325;49.540;8.364;2023-04-07T09:07:22;3.50;;;3.20;;
12519;SDS011;6325;49.540;8.364;2023-04-07T09:09:50;3.30;;;3.10;;
12519;SDS011;6325;49.540;8.364;2023-04-07T09:12:18;3.20;;;3.00;;
12519;SDS011;6325;49.540;8.364;2023-04-07T09:14:45;2.80;;;2.60;;
12519;SDS011;6325;49.540;8.364;2023-04-07T09:17:12;2.60;;;2.40;;
12519;SDS011;6325;49.540;8.364;2023-04-07T09:19:39;2.60;;;2.40;;
12519;SDS011;6325;49.540;8.364;2023-04-07T09:22:06;2.33;;;2.22;;
12519;SDS011;6325;49.540;8.364;2023-04-07T09:24:36;2.03;;;1.92;;
12519;SDS011;6325;49.540;8.364;2023-04-07T09:27:10;2.65;;;2.45;;
12519;SDS011;6325;49.540;8.364;2023-04-07T09:29:39;2.50;;;2.40;;
12519;SDS011;6325;49.540;8.364;2023-04-07T09:32:07;2.93;;;2.73;;
12519;SDS011;6325;49.540;8.364;2023-04-07T09:34:35;2.55;;;2.45;;
12519;SDS011;6325;49.540;8.364;2023-04-07T09:37:04;2.95;;;2.75;;
12519;SDS011;6325;49.540;8.364;2023-04-07T09:39:33;2.22;;;2.13;;
12519;SDS011;6325;49.540;8.364;2023-04-07T09:42:13;1.30;;;1.30;;
12519;SDS011;6325;49.540;8.364;2023-04-07T09:44:43;1.00;;;1.00;;
12519;SDS011;6325;49.540;8.364;2023-04-07T09:47:09;1.20;;;1.20;;
12519;SDS011;6325;49.540;8.364;2023-04-07T09:49:47;1.20;;;1.20;;
12519;SDS011;6325;49.540;8.364;2023-04-07T09:52:16;1.30;;;1.30;;
12519;SDS011;6325;49.540;8.364;2023-04-07T09:54:48;1.40;;;1.40;;
12519;SDS011;6325;49.540;8.364;2023-04-07T09:57:17;1.40;;;1.40;;
12519;SDS011;6325;49.540;8.364;2023-04-07T09:59:47;1.77;;;1.47;;
12519;SDS011;6325;49.540;8.364;2023-04-07T10:02:15;1.60;;;1.60;;
12519;SDS011;6325;49.540;8.364;2023-04-07T10:04:42;1.70;;;1.67;;
12519;SDS011;6325;49.540;8.364;2023-04-07T10:07:09;1.90;;;1.80;;
12519;SDS011;6325;49.540;8.364;2023-04-07T10:09:36;2.00;;;1.90;;
12519;SDS011;6325;49.540;8.364;2023-04-07T10:12:03;2.15;;;2.05;;
12519;SDS011;6325;49.540;8.364;2023-04-07T10:14:31;2.55;;;2.35;;
12519;SDS011;6325;49.540;8.364;2023-04-07T10:17:02;2.50;;;2.40;;
12519;SDS011;6325;49.540;8.364;2023-04-07T10:19:30;2.60;;;2.42;;
12519;SDS011;6325;49.540;8.364;2023-04-07T10:21:58;2.13;;;2.03;;
12519;SDS011;6325;49.540;8.364;2023-04-07T10:24:32;2.10;;;2.00;;
12519;SDS011;6325;49.540;8.364;2023-04-07T10:27:13;2.00;;;1.90;;
12519;SDS011;6325;49.540;8.364;2023-04-07T10:29:43;2.17;;;2.08;;
12519;SDS011;6325;49.540;8.364;2023-04-07T10:32:14;2.30;;;2.10;;
12519;SDS011;6325;49.540;8.364;2023-04-07T10:34:57;2.30;;;2.20;;
12519;SDS011;6325;49.540;8.364;2023-04-07T10:37:25;2.03;;;1.92;;
12519;SDS011;6325;49.540;8.364;2023-04-07T10:42:54;2.00;;;1.90;;
12519;SDS011;6325;49.540;8.364;2023-04-07T10:48:19;2.00;;;1.90;;
12519;SDS011;6325;49.540;8.364;2023-04-07T10:53:46;1.58;;;1.58;;
12519;SDS011;6325;49.540;8.364;2023-04-07T10:59:38;1.73;;;1.63;;
12519;SDS011;6325;49.540;8.364;2023-04-07T11:05:05;1.55;;;1.55;;
12519;SDS011;6325;49.540;8.364;2023-04-07T11:07:42;1.50;;;1.50;;
12519;SDS011;6325;49.540;8.364;2023-04-07T11:10:11;1.70;;;1.70;;
12519;SDS011;6325;49.540;8.364;2023-04-07T11:12:40;1.30;;;1.20;;
12519;SDS011;6325;49.540;8.364;2023-04-07T11:15:17;1.55;;;1.48;;
12519;SDS011;6325;49.540;8.364;2023-04-07T11:17:46;1.45;;;1.45;;
12519;SDS011;6325;49.540;8.364;2023-04-07T11:20:39;1.58;;;1.58;;
12519;SDS011;6325;49.540;8.364;2023-04-07T11:23:07;1.40;;;1.40;;
12519;SDS011;6325;49.540;8.364;2023-04-07T11:25:34;1.40;;;1.40;;
12519;SDS011;6325;49.540;8.364;2023-04-07T11:28:02;1.40;;;1.40;;
12519;SDS011;6325;49.540;8.364;2023-04-07T11:30:29;1.80;;;1.70;;
12519;SDS011;6325;49.540;8.364;2023-04-07T11:32:57;1.77;;;1.67;;
12519;SDS011;6325;49.540;8.364;2023-04-07T11:35:24;1.85;;;1.83;;
12519;SDS011;6325;49.540;8.364;2023-04-07T11:37:57;1.90;;;1.80;;
12519;SDS011;6325;49.540;8.364;2023-04-07T11:40:32;2.00;;;1.90;;
12519;SDS011;6325;49.540;8.364;2023-04-07T11:43:01;2.10;;;2.00;;
12519;SDS011;6325;49.540;8.364;2023-04-07T11:45:28;2.17;;;2.07;;
12519;SDS011;6325;49.540;8.364;2023-04-07T11:47:55;2.00;;;1.90;;
12519;SDS011;6325;49.540;8.364;2023-04-07T11:50:38;1.58;;;1.58;;
12519;SDS011;6325;49.540;8.364;2023-04-07T11:53:08;1.70;;;1.70;;
12519;SDS011;6325;49.540;8.364;2023-04-07T11:55:35;1.75;;;1.65;;
12519;SDS011;6325;49.540;8.364;2023-04-07T11:58:05;1.70;;;1.70;;
12519;SDS011;6325;49.540;8.364;2023-04-07T12:00:34;2.20;;;2.10;;
12519;SDS011;6325;49.540;8.364;2023-04-07T12:03:09;2.08;;;1.98;;
12519;SDS011;6325;49.540;8.364;2023-04-07T12:05:44;2.20;;;2.10;;
12519;SDS011;6325;49.540;8.364;2023-04-07T12:08:13;1.10;;;1.02;;
12519;SDS011;6325;49.540;8.364;2023-04-07T12:10:40;1.20;;;1.20;;
12519;SDS011;6325;49.540;8.364;2023-04-07T12:13:08;1.30;;;1.30;;
12519;SDS011;6325;49.540;8.364;2023-04-07T12:15:35;1.30;;;1.30;;
12519;SDS011;6325;49.540;8.364;2023-04-07T12:18:02;2.00;;;1.90;;
12519;SDS011;6325;49.540;8.364;2023-04-07T12:20:30;1.30;;;1.30;;
12519;SDS011;6325;49.540;8.364;2023-04-07T12:22:57;1.20;;;1.20;;
12519;SDS011;6325;49.540;8.364;2023-04-07T12:25:26;1.52;;;1.52;;
12519;SDS011;6325;49.540;8.364;2023-04-07T12:27:53;1.88;;;1.77;;
12519;SDS011;6325;49.540;8.364;2023-04-07T12:30:20;1.40;;;1.40;;
12519;SDS011;6325;49.540;8.364;2023-04-07T12:32:47;1.60;;;1.50;;
12519;SDS011;6325;49.540;8.364;2023-04-07T12:35:17;1.50;;;1.50;;
12519;SDS011;6325;49.540;8.364;2023-04-07T12:37:52;1.27;;;1.27;;
12519;SDS011;6325;49.540;8.364;2023-04-07T12:40:21;1.30;;;1.30;;
12519;SDS011;6325;49.540;8.364;2023-04-07T12:42:50;1.40;;;1.40;;
12519;SDS011;6325;49.540;8.364;2023-04-07T12:45:17;1.70;;;1.60;;
12519;SDS011;6325;49.540;8.364;2023-04-07T12:47:45;1.70;;;1.60;;
12519;SDS011;6325;49.540;8.364;2023-04-07T12:50:12;1.52;;;1.52;;
12519;SDS011;6325;49.540;8.364;2023-04-07T12:52:40;1.83;;;1.73;;
12519;SDS011;6325;49.540;8.364;2023-04-07T12:55:07;1.40;;;1.40;;
12519;SDS011;6325;49.540;8.364;2023-04-07T12:57:35;1.58;;;1.55;;
12519;SDS011;6325;49.540;8.364;2023-04-07T13:00:05;1.90;;;1.80;;
12519;SDS011;6325;49.540;8.364;2023-04-07T13:02:33;2.20;;;2.10;;
12519;SDS011;6325;49.540;8.364;2023-04-07T13:05:01;2.75;;;2.60;;
12519;SDS011;6325;49.540;8.364;2023-04-07T13:07:31;2.58;;;2.47;;
12519;SDS011;6325;49.540;8.364;2023-04-07T13:09:59;2.00;;;1.90;;
12519;SDS011;6325;49.540;8.364;2023-04-07T13:12:30;1.73;;;1.70;;
12519;SDS011;6325;49.540;8.364;2023-04-07T13:14:57;1.70;;;1.60;;
12519;SDS011;6325;49.540;8.364;2023-04-07T13:17:26;2.40;;;2.30;;
12519;SDS011;6325;49.540;8.364;2023-04-07T13:19:54;2.80;;;2.60;;
12519;SDS011;6325;49.540;8.364;2023-04-07T13:22:23;2.40;;;2.30;;
12519;SDS011;6325;49.540;8.364;2023-04-07T13:24:51;2.72;;;2.58;;
12519;SDS011;6325;49.540;8.364;2023-04-07T13:27:18;3.40;;;2.70;;
12519;SDS011;6325;49.540;8.364;2023-04-07T13:29:45;2.47;;;2.38;;
12519;SDS011;6325;49.540;8.364;2023-04-07T13:32:13;2.00;;;1.90;;
12519;SDS011;6325;49.540;8.364;2023-04-07T13:34:42;1.83;;;1.73;;
12519;SDS011;6325;49.540;8.364;2023-04-07T13:37:10;2.08;;;1.98;;
12519;SDS011;6325;49.540;8.364;2023-04-07T13:39:38;2.30;;;2.20;;
12519;SDS011;6325;49.540;8.364;2023-04-07T13:42:07;2.30;;;2.20;;
12519;SDS011;6325;49.540;8.364;2023-04-07T13:44:35;2.50;;;2.40;;
12519;SDS011;6325;49.540;8.364;2023-04-07T13:47:03;2.80;;;2.60;;
12519;SDS011;6325;49.540;8.364;2023-04-07T13:49:30;2.83;;;2.63;;
12519;SDS011;6325;49.540;8.364;2023-04-07T13:52:00;2.97;;;2.77;;
12519;SDS011;6325;49.540;8.364;2023-04-07T13:54:27;3.28;;;2.90;;
12519;SDS011;6325;49.540;8.364;2023-04-07T13:56:54;3.75;;;2.80;;
12519;SDS011;6325;49.540;8.364;2023-04-07T13:59:21;2.63;;;2.42;;
12519;SDS011;6325;49.540;8.364;2023-04-07T14:01:50;3.10;;;2.90;;
12519;SDS011;6325;49.540;8.364;2023-04-07T14:04:17;2.83;;;2.70;;
12519;SDS011;6325;49.540;8.364;2023-04-07T14:06:46;2.80;;;2.60;;
12519;SDS011;6325;49.540;8.364;2023-04-07T14:09:18;2.75;;;2.55;;
12519;SDS011;6325;49.540;8.364;2023-04-07T14:11:49;1.83;;;1.73;;
12519;SDS011;6325;49.540;8.364;2023-04-07T14:14:19;1.90;;;1.80;;
12519;SDS011;6325;49.540;8.364;2023-04-07T14:16:46;2.00;;;1.90;;
12519;SDS011;6325;49.540;8.364;2023-04-07T14:19:15;2.13;;;1.90;;
12519;SDS011;6325;49.540;8.364;2023-04-07T14:21:46;4.53;;;2.47;;
12519;SDS011;6325;49.540;8.364;2023-04-07T14:24:13;2.20;;;2.10;;
12519;SDS011;6325;49.540;8.364;2023-04-07T14:26:43;1.85;;;1.80;;
12519;SDS011;6325;49.540;8.364;2023-04-07T14:29:11;1.85;;;1.75;;
12519;SDS011;6325;49.540;8.364;2023-04-07T14:31:39;1.67;;;1.60;;
12519;SDS011;6325;49.540;8.364;2023-04-07T14:34:06;1.60;;;1.60;;
12519;SDS011;6325;49.540;8.364;2023-04-07T14:36:34;2.10;;;2.00;;
12519;SDS011;6325;49.540;8.364;2023-04-07T14:39:03;2.17;;;2.08;;
12519;SDS011;6325;49.540;8.364;2023-04-07T14:41:33;2.53;;;2.42;;
12519;SDS011;6325;49.540;8.364;2023-04-07T14:44:01;2.60;;;2.50;;
12519;SDS011;6325;49.540;8.364;2023-04-07T14:46:30;2.50;;;2.40;;
12519;SDS011;6325;49.540;8.364;2023-04-07T14:48:59;3.08;;;2.88;;
12519;SDS011;6325;49.540;8.364;2023-04-07T14:51:30;2.72;;;2.63;;
12519;SDS011;6325;49.540;8.364;2023-04-07T14:53:57;2.88;;;2.78;;
12519;SDS011;6325;49.540;8.364;2023-04-07T14:56:24;2.70;;;2.60;;
12519;SDS011;6325;49.540;8.364;2023-04-07T14:58:52;3.17;;;2.97;;
12519;SDS011;6325;49.540;8.364;2023-04-07T15:01:23;2.80;;;2.70;;
12519;SDS011;6325;49.540;8.364;2023-04-07T15:03:50;2.60;;;2.47;;
12519;SDS011;6325;49.540;8.364;2023-04-07T15:06:17;2.40;;;2.30;;
12519;SDS011;6325;49.540;8.364;2023-04-07T15:08:45;2.50;;;2.40;;
12519;SDS011;6325;49.540;8.364;2023-04-07T15:11:12;2.50;;;2.40;;
12519;SDS011;6325;49.540;8.364;2023-04-07T15:13:41;2.30;;;2.20;;
12519;SDS011;6325;49.540;8.364;2023-04-07T15:16:09;2.60;;;2.40;;
12519;SDS011;6325;49.540;8.364;2023-04-07T15:18:40;2.40;;;2.30;;
12519;SDS011;6325;49.540;8.364;2023-04-07T15:21:08;2.30;;;2.20;;
12519;SDS011;6325;49.540;8.364;2023-04-07T15:23:36;2.03;;;1.92;;